sensor_id;sensor_type;location;lat;lon;timestamp;pressure;altitude;pressure_sealevel;temperature;humidity
43878;BME280;29815;48.184;11.268;2023-07-29T00:01:15;95303.16;;;16.17;100.00
43878;BME280;29815;48.184;11.268;2023-07-29T00:03:45;95299.78;;;16.12;100.00
43878;BME280;29815;48.184;11.268;2023-07-29T00:06:15;95299.63;;;16.17;100.00
43878;BME280;29815;48.184;11.268;2023-07-29T00:08:44;95305.38;;;16.15;100.00
43878;BME280;29815;48.184;11.268;2023-07-29T00:11:14;95304.13;;;16.21;100.00
43878;BME280;29815;48.184;11.268;2023-07-29T00:13:45;95309.69;;;16.16;100.00
43878;BME280;29815;48.184;11.268;2023-07-29T00:16:15;95298.22;;;16.19;100.00
43878;BME280;29815;48.184;11.268;2023-07-29T00:18:45;95299.16;;;16.15;100.00
43878;BME280;29815;48.184;11.268;2023-07-29T00:21:15;95297.72;;;16.17;100.00
43878;BME280;29815;48.184;11.268;2023-07-29T00:23:45;95295.63;;;16.14;100.00
43878;BME280;29815;48.184;11.268;2023-07-29T00:26:14;95286.22;;;16.12;100.00
43878;BME280;29815;48.184;11.268;2023-07-29T00:28:45;95287.81;;;16.13;100.00
43878;BME280;29815;48.184;11.268;2023-07-29T00:31:15;95294.97;;;16.09;100.00
43878;BME280;29815;48.184;11.268;2023-07-29T00:33:45;95289.25;;;16.10;100.00
43878;BME280;29815;48.184;11.268;2023-07-29T00:36:15;95294.06;;;16.13;100.00
43878;BME280;29815;48.184;11.268;2023-07-29T00:38:45;95291.50;;;16.17;100.00
43878;BME280;29815;48.184;11.268;2023-07-29T00:41:16;95288.63;;;16.13;100.00
43878;BME280;29815;48.184;11.268;2023-07-29T00:43:47;95290.53;;;16.13;100.00
43878;BME280;29815;48.184;11.268;2023-07-29T00:46:17;95282.22;;;16.09;100.00
43878;BME280;29815;48.184;11.268;2023-07-29T00:48:47;95282.22;;;16.09;100.00
43878;BME280;29815;48.184;11.268;2023-07-29T00:51:17;95289.38;;;16.05;100.00
43878;BME280;29815;48.184;11.268;2023-07-29T00:53:47;95284.25;;;16.04;100.00
43878;BME280;29815;48.184;11.268;2023-07-29T00:56:16;95282.16;;;16.01;100.00
43878;BME280;29815;48.184;11.268;2023-07-29T00:58:47;95280.66;;;15.95;100.00
43878;BME280;29815;48.184;11.268;2023-07-29T01:01:17;95277.47;;;15.93;100.00
43878;BME280;29815;48.184;11.268;2023-07-29T01:03:46;95271.03;;;15.88;100.00
43878;BME280;29815;48.184;11.268;2023-07-29T01:06:26;95274.41;;;15.85;100.00
43878;BME280;29815;48.184;11.268;2023-07-29T01:09:03;95262.25;;;15.83;100.00
43878;BME280;29815;48.184;11.268;2023-07-29T01:11:44;95270.53;;;15.78;100.00
43878;BME280;29815;48.184;11.268;2023-07-29T01:14:27;95266.63;;;15.70;100.00
43878;BME280;29815;48.184;11.268;2023-07-29T01:17:05;95270.25;;;15.66;100.00
43878;BME280;29815;48.184;11.268;2023-07-29T01:19:57;95268.97;;;15.63;100.00
43878;BME280;29815;48.184;11.268;2023-07-29T01:22:32;95269.28;;;15.62;100.00
43878;BME280;29815;48.184;11.268;2023-07-29T01:25:05;95265.75;;;15.61;100.00
43878;BME280;29815;48.184;11.268;2023-07-29T01:27:35;95264.94;;;15.61;100.00
43878;BME280;29815;48.184;11.268;2023-07-29T01:30:05;95256.13;;;15.55;100.00
43878;BME280;29815;48.184;11.268;2023-07-29T01:32:43;95258.97;;;15.50;100.00
43878;BME280;29815;48.184;11.268;2023-07-29T01:35:23;95257.47;;;15.44;100.00
43878;BME280;29815;48.184;11.268;2023-07-29T01:38:04;95263.00;;;15.39;100.00
43878;BME280;29815;48.184;11.268;2023-07-29T01:40:40;95267.44;;;15.35;100.00
43878;BME280;29815;48.184;11.268;2023-07-29T01:43:10;95262.66;;;15.32;100.00
43878;BME280;29815;48.184;11.268;2023-07-29T01:45:40;95259.44;;;15.30;100.00
43878;BME280;29815;48.184;11.268;2023-07-29T01:48:10;95255.13;;;15.29;100.00
43878;BME280;29815;48.184;11.268;2023-07-29T01:50:40;95251.13;;;15.26;100.00
43878;BME280;29815;48.184;11.268;2023-07-29T01:53:09;95263.88;;;15.26;100.00
43878;BME280;29815;48.184;11.268;2023-07-29T01:55:41;95255.25;;;15.23;100.00
43878;BME280;29815;48.184;11.268;2023-07-29T01:58:12;95263.69;;;15.22;100.00
43878;BME280;29815;48.184;11.268;2023-07-29T02:00:47;95265.59;;;15.21;100.00
43878;BME280;29815;48.184;11.268;2023-07-29T02:03:17;95259.06;;;15.22;100.00
43878;BME280;29815;48.184;11.268;2023-07-29T02:05:47;95254.13;;;15.24;100.00
43878;BME280;29815;48.184;11.268;2023-07-29T02:08:16;95253.03;;;15.26;100.00
43878;BME280;29815;48.184;11.268;2023-07-29T02:10:47;95245.00;;;15.20;100.00
43878;BME280;29815;48.184;11.268;2023-07-29T02:13:17;95253.44;;;15.19;100.00
43878;BME280;29815;48.184;11.268;2023-07-29T02:15:47;95246.22;;;15.14;100.00
43878;BME280;29815;48.184;11.268;2023-07-29T02:18:16;95250.84;;;15.14;100.00
43878;BME280;29815;48.184;11.268;2023-07-29T02:20:46;95255.56;;;15.08;100.00
43878;BME280;29815;48.184;11.268;2023-07-29T02:23:17;95249.19;;;15.04;100.00
43878;BME280;29815;48.184;11.268;2023-07-29T02:25:48;95250.88;;;15.00;100.00
43878;BME280;29815;48.184;11.268;2023-07-29T02:28:19;95260.72;;;14.96;100.00
43878;BME280;29815;48.184;11.268;2023-07-29T02:31:09;95248.91;;;14.92;100.00
43878;BME280;29815;48.184;11.268;2023-07-29T02:33:43;95259.53;;;14.88;100.00
43878;BME280;29815;48.184;11.268;2023-07-29T02:36:14;95256.94;;;14.83;100.00
43878;BME280;29815;48.184;11.268;2023-07-29T02:38:43;95254.66;;;14.77;100.00
43878;BME280;29815;48.184;11.268;2023-07-29T02:41:15;95256.34;;;14.73;100.00
43878;BME280;29815;48.184;11.268;2023-07-29T02:43:49;95257.47;;;14.72;100.00
43878;BME280;29815;48.184;11.268;2023-07-29T02:46:19;95260.16;;;14.72;100.00
43878;BME280;29815;48.184;11.268;2023-07-29T02:48:50;95256.34;;;14.73;100.00
43878;BME280;29815;48.184;11.268;2023-07-29T02:51:20;95251.84;;;14.68;100.00
43878;BME280;29815;48.184;11.268;2023-07-29T02:53:50;95253.25;;;14.66;100.00
43878;BME280;29815;48.184;11.268;2023-07-29T02:56:21;95254.66;;;14.63;100.00
43878;BME280;29815;48.184;11.268;2023-07-29T02:58:51;95241.41;;;14.62;100.00
43878;BME280;29815;48.184;11.268;2023-07-29T03:01:22;95253.34;;;14.61;100.00
43878;BME280;29815;48.184;11.268;2023-07-29T03:03:53;95262.06;;;14.57;100.00
43878;BME280;29815;48.184;11.268;2023-07-29T03:06:23;95258.06;;;14.55;100.00
43878;BME280;29815;48.184;11.268;2023-07-29T03:08:52;95262.16;;;14.52;100.00
43878;BME280;29815;48.184;11.268;2023-07-29T03:11:24;95261.56;;;14.55;100.00
43878;BME280;29815;48.184;11.268;2023-07-29T03:13:53;95246.94;;;14.56;100.00
43878;BME280;29815;48.184;11.268;2023-07-29T03:16:23;95231.97;;;14.59;100.00
43878;BME280;29815;48.184;11.268;2023-07-29T03:18:55;95232.47;;;14.61;100.00
43878;BME280;29815;48.184;11.268;2023-07-29T03:21:25;95238.59;;;14.67;100.00
43878;BME280;29815;48.184;11.268;2023-07-29T03:23:57;95236.41;;;14.69;100.00
43878;BME280;29815;48.184;11.268;2023-07-29T03:26:28;95240.91;;;14.73;100.00
43878;BME280;29815;48.184;11.268;2023-07-29T03:28:57;95227.88;;;14.75;100.00
43878;BME280;29815;48.184;11.268;2023-07-29T03:31:27;95246.69;;;14.80;100.00
43878;BME280;29815;48.184;11.268;2023-07-29T03:33:56;95252.31;;;14.84;100.00
43878;BME280;29815;48.184;11.268;2023-07-29T03:36:26;95240.06;;;14.86;100.00
43878;BME280;29815;48.184;11.268;2023-07-29T03:38:56;95243.47;;;14.92;100.00
43878;BME280;29815;48.184;11.268;2023-07-29T03:41:28;95246.78;;;15.03;100.00
43878;BME280;29815;48.184;11.268;2023-07-29T03:43:57;95235.63;;;15.04;100.00
43878;BME280;29815;48.184;11.268;2023-07-29T03:46:27;95234.19;;;15.07;100.00
43878;BME280;29815;48.184;11.268;2023-07-29T03:48:57;95223.53;;;15.10;100.00
43878;BME280;29815;48.184;11.268;2023-07-29T03:51:27;95218.63;;;15.12;100.00
43878;BME280;29815;48.184;11.268;2023-07-29T03:53:56;95216.41;;;15.14;100.00
43878;BME280;29815;48.184;11.268;2023-07-29T03:56:27;95221.53;;;15.16;100.00
43878;BME280;29815;48.184;11.268;2023-07-29T03:59:02;95219.31;;;15.18;100.00
43878;BME280;29815;48.184;11.268;2023-07-29T04:01:33;95207.34;;;15.19;100.00
43878;BME280;29815;48.184;11.268;2023-07-29T04:04:03;95217.09;;;15.20;100.00
43878;BME280;29815;48.184;11.268;2023-07-29T04:06:33;95211.38;;;15.21;100.00
43878;BME280;29815;48.184;11.268;2023-07-29T04:09:03;95208.66;;;15.21;100.00
43878;BME280;29815;48.184;11.268;2023-07-29T04:11:34;95203.84;;;15.18;100.00
43878;BME280;29815;48.184;11.268;2023-07-29T04:14:04;95200.63;;;15.16;100.00
43878;BME280;29815;48.184;11.268;2023-07-29T04:16:33;95201.25;;;15.13;100.00
43878;BME280;29815;48.184;11.268;2023-07-29T04:19:03;95200.56;;;15.08;100.00
43878;BME280;29815;48.184;11.268;2023-07-29T04:21:33;95204.22;;;15.03;100.00
43878;BME280;29815;48.184;11.268;2023-07-29T04:24:03;95211.25;;;15.04;100.00
43878;BME280;29815;48.184;11.268;2023-07-29T04:26:34;95209.28;;;15.05;100.00
43878;BME280;29815;48.184;11.268;2023-07-29T04:29:04;95218.22;;;15.05;100.00
43878;BME280;29815;48.184;11.268;2023-07-29T04:31:34;95206.94;;;15.03;100.00
43878;BME280;29815;48.184;11.268;2023-07-29T04:34:05;95209.28;;;15.05;100.00
43878;BME280;29815;48.184;11.268;2023-07-29T04:36:34;95209.00;;;15.06;100.00
43878;BME280;29815;48.184;11.268;2023-07-29T04:39:04;95205.69;;;15.09;100.00
43878;BME280;29815;48.184;11.268;2023-07-29T04:41:35;95218.31;;;15.14;100.00
43878;BME280;29815;48.184;11.268;2023-07-29T04:44:05;95212.78;;;15.19;100.00
43878;BME280;29815;48.184;11.268;2023-07-29T04:46:36;95208.03;;;15.24;100.00
43878;BME280;29815;48.184;11.268;2023-07-29T04:49:06;95207.63;;;15.31;100.00
43878;BME280;29815;48.184;11.268;2023-07-29T04:51:36;95200.94;;;15.37;100.00
43878;BME280;29815;48.184;11.268;2023-07-29T04:54:05;95192.88;;;15.46;100.00
43878;BME280;29815;48.184;11.268;2023-07-29T04:56:36;95197.31;;;15.64;100.00
43878;BME280;29815;48.184;11.268;2023-07-29T04:59:06;95194.78;;;15.68;100.00
43878;BME280;29815;48.184;11.268;2023-07-29T05:01:36;95197.88;;;15.75;100.00
43878;BME280;29815;48.184;11.268;2023-07-29T05:04:06;95191.41;;;15.84;100.00
43878;BME280;29815;48.184;11.268;2023-07-29T05:06:35;95186.28;;;15.91;100.00
43878;BME280;29815;48.184;11.268;2023-07-29T05:09:15;95189.06;;;16.00;100.00
43878;BME280;29815;48.184;11.268;2023-07-29T05:11:47;95185.78;;;16.12;100.00
43878;BME280;29815;48.184;11.268;2023-07-29T05:14:18;95172.81;;;16.17;100.00
43878;BME280;29815;48.184;11.268;2023-07-29T05:16:47;95175.09;;;16.24;100.00
43878;BME280;29815;48.184;11.268;2023-07-29T05:19:17;95183.59;;;16.31;100.00
43878;BME280;29815;48.184;11.268;2023-07-29T05:21:47;95182.50;;;16.41;100.00
43878;BME280;29815;48.184;11.268;2023-07-29T05:24:16;95185.72;;;16.51;100.00
43878;BME280;29815;48.184;11.268;2023-07-29T05:26:47;95184.47;;;16.57;100.00
43878;BME280;29815;48.184;11.268;2023-07-29T05:29:17;95183.72;;;16.66;100.00
43878;BME280;29815;48.184;11.268;2023-07-29T05:31:47;95192.00;;;16.69;100.00
43878;BME280;29815;48.184;11.268;2023-07-29T05:34:16;95187.53;;;16.73;100.00
43878;BME280;29815;48.184;11.268;2023-07-29T05:36:46;95202.59;;;16.79;100.00
43878;BME280;29815;48.184;11.268;2023-07-29T05:39:15;95215.53;;;16.82;100.00
43878;BME280;29815;48.184;11.268;2023-07-29T05:41:46;95240.53;;;16.93;100.00
43878;BME280;29815;48.184;11.268;2023-07-29T05:44:16;95238.91;;;16.92;100.00
43878;BME280;29815;48.184;11.268;2023-07-29T05:46:45;95192.19;;;16.81;100.00
43878;BME280;29815;48.184;11.268;2023-07-29T05:49:15;95171.25;;;16.73;100.00
43878;BME280;29815;48.184;11.268;2023-07-29T05:51:45;95177.78;;;16.72;100.00
43878;BME280;29815;48.184;11.268;2023-07-29T05:54:14;95170.28;;;16.69;100.00
43878;BME280;29815;48.184;11.268;2023-07-29T05:56:44;95179.38;;;16.73;100.00
43878;BME280;29815;48.184;11.268;2023-07-29T05:59:15;95182.44;;;16.80;100.00
43878;BME280;29815;48.184;11.268;2023-07-29T06:01:45;95187.88;;;16.80;100.00
43878;BME280;29815;48.184;11.268;2023-07-29T06:04:14;95198.47;;;16.90;100.00
43878;BME280;29815;48.184;11.268;2023-07-29T06:06:44;95193.31;;;16.98;100.00
43878;BME280;29815;48.184;11.268;2023-07-29T06:09:13;95202.16;;;17.12;100.00
43878;BME280;29815;48.184;11.268;2023-07-29T06:11:43;95202.47;;;17.19;100.00
43878;BME280;29815;48.184;11.268;2023-07-29T06:14:12;95197.81;;;17.28;100.00
43878;BME280;29815;48.184;11.268;2023-07-29T06:16:43;95193.34;;;17.41;100.00
43878;BME280;29815;48.184;11.268;2023-07-29T06:19:13;95199.25;;;17.43;100.00
43878;BME280;29815;48.184;11.268;2023-07-29T06:21:43;95200.03;;;17.52;100.00
43878;BME280;29815;48.184;11.268;2023-07-29T06:24:12;95207.88;;;17.62;100.00
43878;BME280;29815;48.184;11.268;2023-07-29T06:26:42;95214.78;;;17.68;100.00
43878;BME280;29815;48.184;11.268;2023-07-29T06:29:11;95231.75;;;17.74;100.00
43878;BME280;29815;48.184;11.268;2023-07-29T06:31:42;95248.84;;;17.83;100.00
43878;BME280;29815;48.184;11.268;2023-07-29T06:34:12;95280.25;;;17.80;100.00
43878;BME280;29815;48.184;11.268;2023-07-29T06:36:41;95312.28;;;17.83;100.00
43878;BME280;29815;48.184;11.268;2023-07-29T06:39:11;95310.53;;;17.70;100.00
43878;BME280;29815;48.184;11.268;2023-07-29T06:41:40;95304.09;;;17.49;100.00
43878;BME280;29815;48.184;11.268;2023-07-29T06:44:12;95295.56;;;17.24;100.00
43878;BME280;29815;48.184;11.268;2023-07-29T06:46:43;95287.53;;;17.02;100.00
43878;BME280;29815;48.184;11.268;2023-07-29T06:49:13;95288.78;;;16.87;100.00
43878;BME280;29815;48.184;11.268;2023-07-29T06:51:42;95272.78;;;16.86;100.00
43878;BME280;29815;48.184;11.268;2023-07-29T06:54:12;95259.31;;;16.72;100.00
43878;BME280;29815;48.184;11.268;2023-07-29T06:56:42;95262.19;;;16.67;100.00
43878;BME280;29815;48.184;11.268;2023-07-29T06:59:11;95271.25;;;16.63;100.00
43878;BME280;29815;48.184;11.268;2023-07-29T07:01:42;95277.81;;;16.62;100.00
43878;BME280;29815;48.184;11.268;2023-07-29T07:04:12;95280.03;;;16.59;100.00
43878;BME280;29815;48.184;11.268;2023-07-29T07:06:41;95273.97;;;16.63;100.00
43878;BME280;29815;48.184;11.268;2023-07-29T07:09:11;95262.31;;;16.62;100.00
43878;BME280;29815;48.184;11.268;2023-07-29T07:11:40;95265.56;;;16.64;100.00
43878;BME280;29815;48.184;11.268;2023-07-29T07:14:10;95243.00;;;16.64;100.00
43878;BME280;29815;48.184;11.268;2023-07-29T07:16:39;95243.50;;;16.66;100.00
43878;BME280;29815;48.184;11.268;2023-07-29T07:19:11;95251.97;;;16.64;100.00
43878;BME280;29815;48.184;11.268;2023-07-29T07:21:40;95238.06;;;16.66;100.00
43878;BME280;29815;48.184;11.268;2023-07-29T07:24:10;95226.53;;;16.69;100.00
43878;BME280;29815;48.184;11.268;2023-07-29T07:26:39;95222.41;;;16.80;100.00
43878;BME280;29815;48.184;11.268;2023-07-29T07:29:09;95211.25;;;16.90;100.00
43878;BME280;29815;48.184;11.268;2023-07-29T07:31:38;95221.16;;;17.03;100.00
43878;BME280;29815;48.184;11.268;2023-07-29T07:34:09;95214.00;;;17.16;100.00
43878;BME280;29815;48.184;11.268;2023-07-29T07:36:39;95208.22;;;17.35;100.00
43878;BME280;29815;48.184;11.268;2023-07-29T07:39:12;95206.31;;;17.44;100.00
43878;BME280;29815;48.184;11.268;2023-07-29T07:41:42;95201.16;;;17.51;100.00
43878;BME280;29815;48.184;11.268;2023-07-29T07:44:12;95204.69;;;17.60;100.00
43878;BME280;29815;48.184;11.268;2023-07-29T07:46:45;95204.22;;;17.67;100.00
43878;BME280;29815;48.184;11.268;2023-07-29T07:49:16;95210.78;;;17.74;100.00
43878;BME280;29815;48.184;11.268;2023-07-29T07:51:46;95209.47;;;17.80;100.00
43878;BME280;29815;48.184;11.268;2023-07-29T07:54:16;95210.91;;;17.86;100.00
43878;BME280;29815;48.184;11.268;2023-07-29T07:56:45;95206.41;;;17.99;100.00
43878;BME280;29815;48.184;11.268;2023-07-29T07:59:15;95214.19;;;18.09;100.00
43878;BME280;29815;48.184;11.268;2023-07-29T08:01:45;95211.63;;;18.13;100.00
43878;BME280;29815;48.184;11.268;2023-07-29T08:04:16;95215.78;;;18.19;100.00
43878;BME280;29815;48.184;11.268;2023-07-29T08:06:46;95212.56;;;18.25;100.00
43878;BME280;29815;48.184;11.268;2023-07-29T08:09:15;95212.50;;;18.34;100.00
43878;BME280;29815;48.184;11.268;2023-07-29T08:11:45;95209.75;;;18.43;100.00
43878;BME280;29815;48.184;11.268;2023-07-29T08:14:14;95210.00;;;18.58;100.00
43878;BME280;29815;48.184;11.268;2023-07-29T08:16:43;95211.56;;;18.68;100.00
43878;BME280;29815;48.184;11.268;2023-07-29T08:19:13;95209.88;;;18.84;100.00
43878;BME280;29815;48.184;11.268;2023-07-29T08:21:44;95211.22;;;18.99;100.00
43878;BME280;29815;48.184;11.268;2023-07-29T08:24:13;95209.09;;;19.05;100.00
43878;BME280;29815;48.184;11.268;2023-07-29T08:26:43;95205.84;;;19.11;100.00
43878;BME280;29815;48.184;11.268;2023-07-29T08:29:12;95202.09;;;19.16;100.00
43878;BME280;29815;48.184;11.268;2023-07-29T08:31:42;95198.97;;;19.26;100.00
43878;BME280;29815;48.184;11.268;2023-07-29T08:34:12;95204.97;;;19.40;100.00
43878;BME280;29815;48.184;11.268;2023-07-29T08:36:41;95203.75;;;19.50;100.00
43878;BME280;29815;48.184;11.268;2023-07-29T08:39:12;95208.91;;;19.51;100.00
43878;BME280;29815;48.184;11.268;2023-07-29T08:41:49;95207.25;;;19.59;100.00
43878;BME280;29815;48.184;11.268;2023-07-29T08:44:25;95210.44;;;19.61;100.00
43878;BME280;29815;48.184;11.268;2023-07-29T08:46:56;95214.91;;;19.66;100.00
43878;BME280;29815;48.184;11.268;2023-07-29T08:49:26;95214.56;;;19.67;100.00
43878;BME280;29815;48.184;11.268;2023-07-29T08:51:57;95220.13;;;19.71;100.00
43878;BME280;29815;48.184;11.268;2023-07-29T08:54:29;95212.66;;;19.80;100.00
43878;BME280;29815;48.184;11.268;2023-07-29T08:56:58;95208.94;;;19.84;100.00
43878;BME280;29815;48.184;11.268;2023-07-29T08:59:29;95217.25;;;20.00;100.00
43878;BME280;29815;48.184;11.268;2023-07-29T09:01:58;95227.56;;;20.15;100.00
43878;BME280;29815;48.184;11.268;2023-07-29T09:04:28;95217.91;;;20.30;100.00
43878;BME280;29815;48.184;11.268;2023-07-29T09:06:59;95217.03;;;20.38;100.00
43878;BME280;29815;48.184;11.268;2023-07-29T09:09:31;95220.47;;;20.47;100.00
43878;BME280;29815;48.184;11.268;2023-07-29T09:12:01;95213.06;;;20.60;100.00
43878;BME280;29815;48.184;11.268;2023-07-29T09:14:30;95212.13;;;20.80;100.00
43878;BME280;29815;48.184;11.268;2023-07-29T09:17:00;95202.09;;;20.97;100.00
43878;BME280;29815;48.184;11.268;2023-07-29T09:19:33;95210.19;;;21.30;100.00
43878;BME280;29815;48.184;11.268;2023-07-29T09:22:03;95205.75;;;21.53;100.00
43878;BME280;29815;48.184;11.268;2023-07-29T09:24:34;95201.88;;;21.54;100.00
43878;BME280;29815;48.184;11.268;2023-07-29T09:27:05;95205.47;;;21.70;100.00
43878;BME280;29815;48.184;11.268;2023-07-29T09:29:36;95207.28;;;21.66;100.00
43878;BME280;29815;48.184;11.268;2023-07-29T09:32:19;95205.22;;;21.75;100.00
43878;BME280;29815;48.184;11.268;2023-07-29T09:34:50;95198.00;;;21.83;100.00
43878;BME280;29815;48.184;11.268;2023-07-29T09:37:21;95193.66;;;21.82;100.00
43878;BME280;29815;48.184;11.268;2023-07-29T09:39:53;95198.72;;;21.95;100.00
43878;BME280;29815;48.184;11.268;2023-07-29T09:42:23;95205.22;;;22.03;100.00
43878;BME280;29815;48.184;11.268;2023-07-29T09:44:52;95209.50;;;22.32;100.00
43878;BME280;29815;48.184;11.268;2023-07-29T09:47:24;95193.13;;;22.51;100.00
43878;BME280;29815;48.184;11.268;2023-07-29T09:49:54;95203.41;;;22.70;100.00
43878;BME280;29815;48.184;11.268;2023-07-29T09:52:24;95192.84;;;22.72;100.00
43878;BME280;29815;48.184;11.268;2023-07-29T09:54:55;95200.31;;;22.87;100.00
43878;BME280;29815;48.184;11.268;2023-07-29T09:57:24;95192.81;;;23.04;100.00
43878;BME280;29815;48.184;11.268;2023-07-29T09:59:54;95183.41;;;23.20;100.00
43878;BME280;29815;48.184;11.268;2023-07-29T10:02:25;95185.72;;;23.38;100.00
43878;BME280;29815;48.184;11.268;2023-07-29T10:04:57;95186.13;;;23.55;100.00
43878;BME280;29815;48.184;11.268;2023-07-29T10:07:28;95168.94;;;23.78;100.00
43878;BME280;29815;48.184;11.268;2023-07-29T10:09:59;95177.50;;;23.95;100.00
43878;BME280;29815;48.184;11.268;2023-07-29T10:12:32;95173.09;;;24.14;100.00
43878;BME280;29815;48.184;11.268;2023-07-29T10:15:05;95164.53;;;24.38;100.00
43878;BME280;29815;48.184;11.268;2023-07-29T10:17:38;95163.56;;;24.50;100.00
43878;BME280;29815;48.184;11.268;2023-07-29T10:20:11;95157.06;;;24.61;100.00
43878;BME280;29815;48.184;11.268;2023-07-29T10:22:46;95159.28;;;24.79;100.00
43878;BME280;29815;48.184;11.268;2023-07-29T10:25:22;95159.59;;;24.74;100.00
43878;BME280;29815;48.184;11.268;2023-07-29T10:27:56;95166.00;;;24.55;100.00
43878;BME280;29815;48.184;11.268;2023-07-29T10:30:29;95156.91;;;24.28;100.00
43878;BME280;29815;48.184;11.268;2023-07-29T10:33:03;95156.63;;;24.37;100.00
43878;BME280;29815;48.184;11.268;2023-07-29T10:35:34;95160.16;;;24.34;100.00
43878;BME280;29815;48.184;11.268;2023-07-29T10:38:05;95160.25;;;24.41;100.00
43878;BME280;29815;48.184;11.268;2023-07-29T10:40:48;95157.69;;;24.51;100.00
43878;BME280;29815;48.184;11.268;2023-07-29T10:43:24;95161.78;;;24.38;100.00
43878;BME280;29815;48.184;11.268;2023-07-29T10:45:56;95160.31;;;24.44;100.00
43878;BME280;29815;48.184;11.268;2023-07-29T10:48:44;95163.50;;;24.46;100.00
43878;BME280;29815;48.184;11.268;2023-07-29T10:51:27;95188.56;;;24.41;100.00
43878;BME280;29815;48.184;11.268;2023-07-29T10:54:03;95214.03;;;23.96;100.00
43878;BME280;29815;48.184;11.268;2023-07-29T10:56:47;95236.72;;;23.19;100.00
43878;BME280;29815;48.184;11.268;2023-07-29T10:59:32;95224.97;;;22.72;100.00
43878;BME280;29815;48.184;11.268;2023-07-29T11:02:15;95220.38;;;22.60;100.00
43878;BME280;29815;48.184;11.268;2023-07-29T11:04:47;95226.41;;;22.50;100.00
43878;BME280;29815;48.184;11.268;2023-07-29T11:07:23;95210.03;;;22.38;100.00
43878;BME280;29815;48.184;11.268;2023-07-29T11:10:01;95214.28;;;22.35;100.00
43878;BME280;29815;48.184;11.268;2023-07-29T11:12:52;95198.88;;;22.46;100.00
43878;BME280;29815;48.184;11.268;2023-07-29T11:15:24;95196.38;;;22.73;100.00
43878;BME280;29815;48.184;11.268;2023-07-29T11:17:56;95189.19;;;23.00;100.00
43878;BME280;29815;48.184;11.268;2023-07-29T11:20:28;95201.13;;;23.23;100.00
43878;BME280;29815;48.184;11.268;2023-07-29T11:23:01;95189.97;;;23.16;100.00
43878;BME280;29815;48.184;11.268;2023-07-29T11:25:32;95187.13;;;22.93;100.00
43878;BME280;29815;48.184;11.268;2023-07-29T11:28:05;95180.66;;;23.20;100.00
43878;BME280;29815;48.184;11.268;2023-07-29T11:30:34;95175.22;;;23.59;100.00
43878;BME280;29815;48.184;11.268;2023-07-29T11:33:08;95165.06;;;23.82;100.00
43878;BME280;29815;48.184;11.268;2023-07-29T11:35:38;95166.81;;;23.71;100.00
43878;BME280;29815;48.184;11.268;2023-07-29T11:38:07;95169.75;;;24.01;100.00
43878;BME280;29815;48.184;11.268;2023-07-29T11:40:37;95165.38;;;24.42;100.00
43878;BME280;29815;48.184;11.268;2023-07-29T11:43:08;95165.16;;;24.77;100.00
43878;BME280;29815;48.184;11.268;2023-07-29T11:45:37;95156.88;;;25.00;100.00
43878;BME280;29815;48.184;11.268;2023-07-29T11:48:25;95150.06;;;25.20;100.00
43878;BME280;29815;48.184;11.268;2023-07-29T11:50:55;95141.75;;;25.47;100.00
43878;BME280;29815;48.184;11.268;2023-07-29T11:53:28;95145.50;;;25.61;100.00
43878;BME280;29815;48.184;11.268;2023-07-29T11:55:59;95139.63;;;25.96;100.00
43878;BME280;29815;48.184;11.268;2023-07-29T11:58:30;95149.41;;;26.31;100.00
43878;BME280;29815;48.184;11.268;2023-07-29T12:01:01;95147.38;;;26.69;96.93
43878;BME280;29815;48.184;11.268;2023-07-29T12:03:32;95142.09;;;26.49;93.57
43878;BME280;29815;48.184;11.268;2023-07-29T12:06:02;95134.50;;;26.36;94.95
43878;BME280;29815;48.184;11.268;2023-07-29T12:08:32;95128.69;;;26.07;99.16
43878;BME280;29815;48.184;11.268;2023-07-29T12:11:01;95126.50;;;25.86;100.00
43878;BME280;29815;48.184;11.268;2023-07-29T12:13:32;95134.66;;;25.42;100.00
43878;BME280;29815;48.184;11.268;2023-07-29T12:16:03;95136.59;;;25.12;100.00
43878;BME280;29815;48.184;11.268;2023-07-29T12:18:33;95136.44;;;24.75;100.00
43878;BME280;29815;48.184;11.268;2023-07-29T12:21:03;95138.72;;;24.46;100.00
43878;BME280;29815;48.184;11.268;2023-07-29T12:23:32;95136.41;;;23.83;100.00
43878;BME280;29815;48.184;11.268;2023-07-29T12:26:02;95129.13;;;23.33;100.00
43878;BME280;29815;48.184;11.268;2023-07-29T12:28:33;95158.69;;;22.85;100.00
43878;BME280;29815;48.184;11.268;2023-07-29T12:31:07;95150.69;;;22.29;100.00
43878;BME280;29815;48.184;11.268;2023-07-29T12:33:37;95170.25;;;22.00;100.00
43878;BME280;29815;48.184;11.268;2023-07-29T12:36:07;95173.34;;;21.55;100.00
43878;BME280;29815;48.184;11.268;2023-07-29T12:38:38;95163.28;;;21.31;100.00
43878;BME280;29815;48.184;11.268;2023-07-29T12:41:08;95151.09;;;21.16;100.00
43878;BME280;29815;48.184;11.268;2023-07-29T12:43:39;95149.44;;;21.00;100.00
43878;BME280;29815;48.184;11.268;2023-07-29T12:46:08;95164.50;;;20.93;100.00
43878;BME280;29815;48.184;11.268;2023-07-29T12:48:38;95167.56;;;20.80;100.00
43878;BME280;29815;48.184;11.268;2023-07-29T12:51:08;95176.16;;;20.66;100.00
43878;BME280;29815;48.184;11.268;2023-07-29T12:53:39;95196.31;;;20.61;100.00
43878;BME280;29815;48.184;11.268;2023-07-29T12:56:09;95194.72;;;20.48;100.00
43878;BME280;29815;48.184;11.268;2023-07-29T12:58:40;95153.03;;;20.39;100.00
43878;BME280;29815;48.184;11.268;2023-07-29T13:01:09;95169.63;;;20.34;100.00